Time;durP1;ratioP1;P1;durP2;ratioP2;P2;SDS_P1;SDS_P2;PMS_P1;PMS_P2;Temp;Humidity;BMP_temperature;BMP_pressure;BME280_temperature;BME280_humidity;BME280_pressure;Samples;Min_cycle;Max_cycle;Signal;HPM_P1;HPM_P2
2023/04/20 00:00:10;;;;;;;;;16.25;12.75;;;;;15.35;36.95;101085.53;2100275;28;46831;-65
2023/04/20 00:01:10;;;;;;;;;12.00;12.00;;;;;15.32;37.20;101082.06;2099600;28;45765;-66
2023/04/20 00:02:14;;;;;;;;;8.75;8.75;;;;;15.30;37.18;101083.91;2101096;28;46159;-65
2023/04/20 00:03:14;;;;;;;;;11.00;10.40;;;;;15.29;37.42;101075.94;2104103;28;45113;-66
2023/04/20 00:04:14;;;;;;;;;15.25;11.50;;;;;15.28;36.85;101079.56;2104909;28;46929;-65
2023/04/20 00:05:15;;;;;;;;;10.50;10.25;;;;;15.26;37.23;101078.75;2101931;28;46706;-65
2023/04/20 00:06:15;;;;;;;;;11.00;11.00;;;;;15.25;37.42;101074.31;2103823;27;46262;-66
2023/04/20 00:07:15;;;;;;;;;10.25;10.25;;;;;15.22;37.15;101083.31;2101320;28;46843;-65
2023/04/20 00:08:16;;;;;;;;;10.50;10.50;;;;;15.21;36.96;101078.00;2104499;28;46076;-65
2023/04/20 00:09:17;;;;;;;;;9.75;9.75;;;;;15.18;37.07;101070.97;2094375;28;46314;-65
2023/04/20 00:10:17;;;;;;;;;14.50;12.25;;;;;15.16;37.31;101072.84;2094972;28;46275;-65
2023/04/20 00:11:17;;;;;;;;;12.75;12.25;;;;;15.14;37.10;101074.69;2102673;28;46882;-64
2023/04/20 00:12:18;;;;;;;;;13.50;11.75;;;;;15.12;37.64;101073.88;2099777;28;45930;-65
2023/04/20 00:13:18;;;;;;;;;13.25;12.25;;;;;15.12;37.75;101072.97;2099106;27;45857;-64
2023/04/20 00:14:19;;;;;;;;;14.00;12.25;;;;;15.11;37.43;101073.91;2098709;28;46365;-66
2023/04/20 00:15:20;;;;;;;;;11.40;10.60;;;;;15.08;37.11;101066.88;2101122;28;46425;-65
2023/04/20 00:16:20;;;;;;;;;9.75;9.75;;;;;15.07;37.68;101062.44;2104237;28;47053;-67
2023/04/20 00:17:20;;;;;;;;;11.50;11.00;;;;;15.05;37.45;101061.63;2103608;28;46720;-64
2023/04/20 00:18:21;;;;;;;;;12.00;12.00;;;;;15.03;37.58;101055.47;2104391;28;45952;-66
2023/04/20 00:19:22;;;;;;;;;10.25;10.00;;;;;15.01;37.73;101063.56;2100910;28;45659;-66
2023/04/20 00:20:22;;;;;;;;;11.50;10.25;;;;;14.99;37.67;101060.06;2101993;28;46746;-64
2023/04/20 00:21:23;;;;;;;;;13.75;13.50;;;;;14.99;37.21;101059.16;2101528;28;45886;-65
2023/04/20 00:22:25;;;;;;;;;12.50;11.50;;;;;14.96;37.81;101059.28;2081102;28;45746;-66
2023/04/20 00:23:25;;;;;;;;;14.80;14.00;;;;;14.95;37.45;101055.72;2082649;28;46385;-66
2023/04/20 00:24:25;;;;;;;;;11.50;10.50;;;;;14.95;37.82;101055.72;2099605;28;46639;-65
2023/04/20 00:25:26;;;;;;;;;13.00;12.00;;;;;14.93;37.43;101057.59;2099947;28;45910;-65
2023/04/20 00:26:26;;;;;;;;;11.50;11.50;;;;;14.92;37.44;101052.31;2098047;28;46478;-65
2023/04/20 00:27:27;;;;;;;;;11.00;10.00;;;;;14.91;37.53;101058.56;2103832;28;46690;-65
2023/04/20 00:28:28;;;;;;;;;8.75;8.75;;;;;14.90;37.68;101048.81;2104224;28;46586;-65
2023/04/20 00:29:29;;;;;;;;;10.80;10.80;;;;;14.87;37.26;101048.94;2104143;28;47123;-65
2023/04/20 00:30:29;;;;;;;;;11.50;11.50;;;;;14.84;37.26;101052.56;2097133;28;45611;-65
2023/04/20 00:31:30;;;;;;;;;11.50;11.50;;;;;14.82;37.63;101056.19;2101915;28;46268;-65
2023/04/20 00:32:30;;;;;;;;;14.20;12.20;;;;;14.80;37.67;101052.72;2096772;28;46633;-65
2023/04/20 00:33:31;;;;;;;;;13.00;12.25;;;;;14.79;38.10;101054.50;2103240;28;46391;-67
2023/04/20 00:34:31;;;;;;;;;8.75;8.25;;;;;14.77;37.81;101050.16;2104235;28;46246;-67
2023/04/20 00:35:31;;;;;;;;;12.50;10.25;;;;;14.76;37.55;101043.94;2094464;28;46337;-64
2023/04/20 00:36:32;;;;;;;;;13.75;12.00;;;;;14.75;37.71;101046.66;2087628;28;45764;-65
2023/04/20 00:37:32;;;;;;;;;12.00;10.00;;;;;14.74;37.79;101053.81;2094264;28;46067;-65
2023/04/20 00:38:32;;;;;;;;;12.75;12.25;;;;;14.73;38.18;101044.88;2097046;28;46736;-65
2023/04/20 00:39:33;;;;;;;;;14.00;12.75;;;;;14.72;37.94;101048.50;2103431;28;46559;-67
2023/04/20 00:40:34;;;;;;;;;12.00;12.00;;;;;14.70;38.00;101044.13;2096942;28;45028;-67
2023/04/20 00:41:34;;;;;;;;;13.60;13.00;;;;;14.67;38.00;101037.09;2101402;28;45976;-66
2023/04/20 00:42:35;;;;;;;;;8.00;8.00;;;;;14.64;37.77;101036.34;2098243;28;44997;-67
2023/04/20 00:43:36;;;;;;;;;8.00;8.00;;;;;14.63;38.02;101032.78;2099621;28;46369;-67
2023/04/20 00:44:36;;;;;;;;;11.40;10.80;;;;;14.63;38.12;101038.13;2096016;28;45608;-66
2023/04/20 00:45:37;;;;;;;;;13.75;13.75;;;;;14.63;38.06;101031.91;2092578;28;45846;-67
2023/04/20 00:46:37;;;;;;;;;8.00;8.00;;;;;14.62;38.05;101036.38;2104955;28;46583;-66
2023/04/20 00:47:37;;;;;;;;;17.25;13.25;;;;;14.62;37.86;101030.19;2092025;28;45396;-65
2023/04/20 00:48:37;;;;;;;;;10.50;10.50;;;;;14.61;38.07;101025.72;2087284;28;46696;-67
2023/04/20 00:49:38;;;;;;;;;11.25;9.50;;;;;14.60;37.76;101023.97;2096240;28;45757;-67
2023/04/20 00:50:39;;;;;;;;;12.00;11.50;;;;;14.59;37.95;101032.91;2101836;28;46638;-65
2023/04/20 00:51:40;;;;;;;;;12.60;12.60;;;;;14.57;38.00;101026.75;2102008;27;46467;-67
2023/04/20 00:52:40;;;;;;;;;10.75;9.75;;;;;14.55;38.46;101026.81;2104703;28;46176;-67
2023/04/20 00:53:41;;;;;;;;;12.25;11.25;;;;;14.56;38.12;101033.91;2106904;27;45986;-65
2023/04/20 00:54:41;;;;;;;;;10.50;10.50;;;;;14.56;37.92;101033.03;2102935;28;45535;-66
2023/04/20 00:55:42;;;;;;;;;8.50;7.00;;;;;14.55;38.05;101029.50;2100636;28;46410;-66
2023/04/20 00:56:43;;;;;;;;;12.20;11.00;;;;;14.54;38.35;101027.75;2102380;28;46339;-66
2023/04/20 00:57:43;;;;;;;;;12.25;12.00;;;;;14.54;38.34;101035.75;2101120;27;46813;-65
2023/04/20 00:58:45;;;;;;;;;10.25;9.25;;;;;14.55;38.19;101031.28;2097132;28;46360;-66
2023/04/20 00:59:45;;;;;;;;;12.20;10.00;;;;;14.55;38.49;101023.28;2102894;28;46833;-66
2023/04/20 01:00:46;;;;;;;;;10.75;10.75;;;;;14.55;38.56;101029.50;2100157;28;46397;-66
2023/04/20 01:01:46;;;;;;;;;11.75;11.75;;;;;14.55;38.47;101026.81;2102199;28;46350;-66
2023/04/20 01:02:47;;;;;;;;;12.00;11.25;;;;;14.55;38.75;101025.94;2105386;28;45752;-67
2023/04/20 01:03:47;;;;;;;;;12.50;10.75;;;;;14.56;38.58;101027.69;2101863;28;46458;-65
2023/04/20 01:04:47;;;;;;;;;8.00;8.00;;;;;14.56;38.33;101025.03;2098358;28;46723;-65
2023/04/20 01:05:48;;;;;;;;;12.25;12.25;;;;;14.57;38.63;101021.41;2102588;28;47713;-66
2023/04/20 01:06:49;;;;;;;;;11.25;10.25;;;;;14.57;38.40;101030.31;2103389;28;45773;-66
2023/04/20 01:07:49;;;;;;;;;14.00;13.00;;;;;14.58;38.31;101024.03;2102076;27;45859;-66
2023/04/20 01:08:50;;;;;;;;;11.00;10.25;;;;;14.57;38.48;101018.75;2104675;28;45587;-66
2023/04/20 01:09:51;;;;;;;;;9.00;9.00;;;;;14.56;38.21;101025.88;2101882;28;46551;-66
2023/04/20 01:10:52;;;;;;;;;14.25;12.75;;;;;14.55;38.31;101024.16;2102775;28;46571;-68
2023/04/20 01:11:52;;;;;;;;;13.60;13.60;;;;;14.54;38.22;101029.53;2099593;28;45395;-66
2023/04/20 01:12:53;;;;;;;;;10.25;9.75;;;;;14.53;38.29;101025.13;2104692;28;46823;-66
2023/04/20 01:13:53;;;;;;;;;13.50;12.00;;;;;14.51;38.32;101026.97;2101340;28;46213;-66
2023/04/20 01:14:53;;;;;;;;;13.50;12.25;;;;;14.52;38.32;101031.41;2097978;28;46245;-66
2023/04/20 01:15:58;;;;;;;;;11.50;10.75;;;;;14.49;38.52;101029.72;2102767;28;46314;-66
2023/04/20 01:16:59;;;;;;;;;12.00;11.40;;;;;14.47;38.51;101033.31;2102709;28;46389;-67
2023/04/20 01:17:59;;;;;;;;;14.00;12.00;;;;;14.44;38.43;101020.94;2097491;28;45900;-67
2023/04/20 01:18:59;;;;;;;;;9.50;9.50;;;;;14.42;38.59;101026.31;2102880;28;47033;-66
2023/04/20 01:20:00;;;;;;;;;11.75;11.75;;;;;14.41;38.66;101029.03;2103324;28;45673;-66
2023/04/20 01:21:00;;;;;;;;;12.00;12.00;;;;;14.38;38.27;101030.03;2101958;28;45541;-65
2023/04/20 01:22:00;;;;;;;;;11.50;11.50;;;;;14.38;38.53;101023.81;2100046;28;46254;-66
2023/04/20 01:23:01;;;;;;;;;9.00;9.00;;;;;14.35;38.52;101024.75;2089965;28;45044;-66
2023/04/20 01:24:01;;;;;;;;;11.25;10.25;;;;;14.32;38.49;101019.53;2086843;28;46382;-66
2023/04/20 01:25:01;;;;;;;;;10.50;9.75;;;;;14.33;38.89;101023.06;2098848;28;45544;-67
2023/04/20 01:26:09;;;;;;;;;9.50;9.25;;;;;14.31;38.63;101025.78;2087855;28;46999;-66
2023/04/20 01:27:10;;;;;;;;;11.20;11.20;;;;;14.29;38.43;101018.75;2095533;28;46521;-65
2023/04/20 01:28:13;;;;;;;;;11.60;11.60;;;;;14.27;38.48;101017.94;2103535;27;45862;-65
2023/04/20 01:29:13;;;;;;;;;15.60;14.20;;;;;14.25;38.91;101014.44;2103064;28;46382;-64
2023/04/20 01:30:14;;;;;;;;;13.00;10.50;;;;;14.24;38.83;101010.03;2098976;28;46261;-66
2023/04/20 01:31:14;;;;;;;;;10.67;10.67;;;;;14.22;38.94;101010.06;2100651;28;46660;-65
2023/04/20 01:32:15;;;;;;;;;9.50;9.50;;;;;14.21;39.06;101010.97;2100817;28;46370;-65
2023/04/20 01:33:15;;;;;;;;;11.00;10.00;;;;;14.20;38.64;101009.22;2083053;28;46520;-65
2023/04/20 01:34:16;;;;;;;;;8.75;8.75;;;;;14.19;38.75;101007.50;2082431;28;46556;-66
2023/04/20 01:35:16;;;;;;;;;11.50;11.25;;;;;14.19;38.68;101009.28;2101526;28;46627;-67
2023/04/20 01:36:17;;;;;;;;;12.00;11.00;;;;;14.19;38.83;101003.94;2102940;28;46304;-64
2023/04/20 01:37:17;;;;;;;;;13.50;13.50;;;;;14.19;39.11;101003.94;2104912;27;46079;-65
2023/04/20 01:38:19;;;;;;;;;10.75;10.25;;;;;14.20;38.77;101003.91;2099314;27;46779;-66
2023/04/20 01:39:19;;;;;;;;;11.20;11.20;;;;;14.19;39.13;101003.94;2102021;27;46556;-65
2023/04/20 01:40:19;;;;;;;;;11.25;10.00;;;;;14.18;39.33;101003.06;2101448;28;45906;-64
2023/04/20 01:41:20;;;;;;;;;11.25;11.25;;;;;14.18;39.03;100997.75;2100389;28;46180;-65
2023/04/20 01:42:21;;;;;;;;;12.00;11.50;;;;;14.18;38.98;101000.41;2104730;27;46636;-68
2023/04/20 01:43:23;;;;;;;;;12.40;11.20;;;;;14.17;39.28;101001.34;2103471;28;47600;-65
2023/04/20 01:44:23;;;;;;;;;12.60;12.60;;;;;14.17;39.22;100998.66;2100830;28;45657;-67
2023/04/20 01:45:24;;;;;;;;;13.25;13.25;;;;;14.16;39.04;100999.59;2100810;28;46537;-66
2023/04/20 01:46:24;;;;;;;;;11.75;11.00;;;;;14.17;38.98;100997.78;2104032;28;46516;-66
2023/04/20 01:47:25;;;;;;;;;10.50;10.50;;;;;14.16;39.25;100996.03;2103699;28;46246;-65
2023/04/20 01:48:25;;;;;;;;;11.75;10.75;;;;;14.16;39.15;100990.72;2096993;28;47227;-65
2023/04/20 01:49:26;;;;;;;;;11.75;11.50;;;;;14.14;39.12;101002.31;2101862;28;46726;-66
2023/04/20 01:50:26;;;;;;;;;11.25;11.25;;;;;14.13;39.12;101002.38;2098354;28;46182;-66
2023/04/20 01:51:26;;;;;;;;;12.25;11.50;;;;;14.12;38.83;101000.63;2105133;27;46282;-65
2023/04/20 01:52:27;;;;;;;;;13.50;12.25;;;;;14.09;38.96;100992.69;2102767;28;46256;-65
2023/04/20 01:53:27;;;;;;;;;11.50;11.50;;;;;14.09;39.23;100996.22;2098970;28;46020;-65
2023/04/20 01:54:27;;;;;;;;;11.25;11.00;;;;;14.07;39.04;100994.53;2101621;28;45774;-65
2023/04/20 01:55:28;;;;;;;;;10.50;10.50;;;;;14.05;39.00;100996.38;2101726;27;45829;-66
2023/04/20 01:56:28;;;;;;;;;12.00;12.00;;;;;14.03;38.90;100998.22;2100511;28;47015;-66
2023/04/20 01:57:28;;;;;;;;;9.50;9.50;;;;;14.00;39.19;100999.22;2103777;27;46494;-64
2023/04/20 01:58:30;;;;;;;;;12.75;11.25;;;;;14.00;39.03;101001.00;2098047;27;45311;-66
2023/04/20 01:59:30;;;;;;;;;11.00;10.60;;;;;14.00;39.16;101006.34;2102043;28;45614;-65
2023/04/20 02:00:30;;;;;;;;;10.25;10.00;;;;;13.99;39.32;100999.25;2103001;28;47310;-65
2023/04/20 02:01:31;;;;;;;;;9.00;9.00;;;;;13.98;39.02;101000.19;2102630;27;46154;-66
2023/04/20 02:02:31;;;;;;;;;10.00;10.00;;;;;13.97;39.03;101003.75;2104673;27;46475;-65
2023/04/20 02:03:31;;;;;;;;;10.25;9.25;;;;;13.96;39.09;100996.66;2102268;27;46323;-65
2023/04/20 02:04:32;;;;;;;;;11.00;11.00;;;;;13.94;39.08;100999.38;2096456;28;45572;-65
2023/04/20 02:05:32;;;;;;;;;11.00;11.00;;;;;13.94;39.33;101002.06;2102474;28;46760;-65
2023/04/20 02:06:32;;;;;;;;;12.00;10.00;;;;;13.94;39.46;101002.06;2095628;28;46788;-65
2023/04/20 02:07:33;;;;;;;;;4.50;4.50;;;;;13.93;39.37;100999.44;2102745;28;46725;-66
2023/04/20 02:08:33;;;;;;;;;12.25;11.75;;;;;13.93;39.12;101007.44;2096840;28;46707;-65
2023/04/20 02:09:33;;;;;;;;;10.00;10.00;;;;;13.92;39.25;101008.34;2100580;28;45595;-66
2023/04/20 02:10:34;;;;;;;;;10.00;10.00;;;;;13.90;39.36;101004.88;2095846;28;45919;-67
2023/04/20 02:11:34;;;;;;;;;3.67;2.00;;;;;13.87;39.31;101003.19;2102952;28;46604;-66
2023/04/20 02:12:35;;;;;;;;;13.00;12.00;;;;;13.86;39.53;101006.78;2095872;28;46335;-67
2023/04/20 02:13:35;;;;;;;;;12.00;11.00;;;;;13.83;39.51;101004.16;2106119;27;45743;-68
2023/04/20 02:14:36;;;;;;;;;9.50;9.50;;;;;13.83;39.24;101006.84;2099358;28;46854;-67
2023/04/20 02:15:36;;;;;;;;;10.00;9.00;;;;;13.80;39.33;100998.94;2104884;27;45807;-67
2023/04/20 02:16:36;;;;;;;;;12.00;11.75;;;;;13.78;39.50;100998.97;2098627;28;45728;-66
2023/04/20 02:17:37;;;;;;;;;10.25;10.00;;;;;13.77;39.39;101004.38;2102831;28;46122;-67
2023/04/20 02:18:38;;;;;;;;;9.75;9.75;;;;;13.76;39.16;101007.97;2096228;28;45024;-66
2023/04/20 02:19:39;;;;;;;;;10.40;10.40;;;;;13.74;39.28;101012.47;2102204;28;45829;-66
2023/04/20 02:20:39;;;;;;;;;10.00;8.00;;;;;13.72;39.39;101009.84;2095995;28;46832;-66
2023/04/20 02:21:40;;;;;;;;;10.75;9.75;;;;;13.73;39.39;101002.72;2093139;28;46284;-66
2023/04/20 02:22:40;;;;;;;;;10.75;10.00;;;;;13.71;39.57;101005.41;2095431;28;45536;-65
2023/04/20 02:23:40;;;;;;;;;8.00;8.00;;;;;13.71;39.15;101000.06;2101618;28;45793;-67
2023/04/20 02:24:42;;;;;;;;;9.50;8.75;;;;;13.71;39.41;101001.88;2096984;28;46160;-66
2023/04/20 02:25:42;;;;;;;;;9.80;9.80;;;;;13.70;39.38;101006.34;2089780;28;46216;-68
2023/04/20 02:26:43;;;;;;;;;6.75;6.75;;;;;13.68;39.40;101002.84;2088084;28;45514;-65
2023/04/20 02:27:43;;;;;;;;;9.50;8.00;;;;;13.67;38.76;101009.09;2109081;27;46191;-66
2023/04/20 02:28:44;;;;;;;;;9.25;9.25;;;;;13.64;39.21;101005.66;2105717;27;46791;-68
2023/04/20 02:29:44;;;;;;;;;8.25;8.25;;;;;13.64;39.25;101008.31;2103889;28;45573;-66
2023/04/20 02:30:45;;;;;;;;;9.25;8.25;;;;;13.62;39.32;101007.50;2096369;28;46440;-65
2023/04/20 02:31:45;;;;;;;;;8.25;8.25;;;;;13.61;39.41;101013.75;2089494;28;45349;-64
2023/04/20 02:32:46;;;;;;;;;8.50;7.00;;;;;13.61;39.46;101016.44;2099507;28;45755;-66
2023/04/20 02:33:48;;;;;;;;;10.50;9.00;;;;;13.61;39.32;101011.09;2095261;28;46505;-65
2023/04/20 02:34:48;;;;;;;;;11.00;11.00;;;;;13.61;39.37;101011.09;2105461;28;47085;-66
2023/04/20 02:35:49;;;;;;;;;9.00;9.00;;;;;13.61;39.37;101016.44;2102245;28;46406;-68
2023/04/20 02:36:54;;;;;;;;;9.50;8.25;;;;;13.61;39.51;101013.75;2098825;28;46330;-66
2023/04/20 02:37:54;;;;;;;;;8.40;8.40;;;;;13.60;39.38;101007.56;2104248;28;47512;-65
2023/04/20 02:38:55;;;;;;;;;8.00;8.00;;;;;13.60;39.37;101017.34;2104851;28;46854;-68
2023/04/20 02:39:55;;;;;;;;;10.50;10.50;;;;;13.59;39.39;101011.09;2096363;28;45403;-67
2023/04/20 02:40:55;;;;;;;;;7.75;7.75;;;;;13.58;39.22;101008.50;2096255;28;45123;-65
2023/04/20 02:41:56;;;;;;;;;8.25;7.25;;;;;13.58;39.23;101009.38;2104205;28;47691;-67
2023/04/20 02:42:56;;;;;;;;;10.00;10.00;;;;;13.57;39.38;101015.63;2105007;28;45890;-68
2023/04/20 02:43:56;;;;;;;;;7.75;7.75;;;;;13.56;39.13;101005.88;2102144;28;47000;-67
2023/04/20 02:44:57;;;;;;;;;5.75;5.75;;;;;13.55;39.25;101012.13;2099993;28;45055;-68
2023/04/20 02:45:57;;;;;;;;;11.50;10.00;;;;;13.54;39.26;101005.91;2104137;28;45500;-68
2023/04/20 02:46:57;;;;;;;;;11.00;11.00;;;;;13.53;39.44;101008.63;2102964;28;46322;-67
2023/04/20 02:47:58;;;;;;;;;8.00;8.00;;;;;13.51;39.36;101008.69;2104242;28;46474;-66
2023/04/20 02:48:58;;;;;;;;;7.50;7.50;;;;;13.52;39.58;101014.88;2096059;28;45086;-69
2023/04/20 02:49:58;;;;;;;;;8.00;7.00;;;;;13.50;39.12;101012.28;2094139;28;45703;-67
2023/04/20 02:50:59;;;;;;;;;7.00;6.75;;;;;13.47;39.05;101006.16;2104724;28;45718;-68
2023/04/20 02:51:59;;;;;;;;;8.00;7.67;;;;;13.47;39.23;101012.38;2097157;28;46659;-67
2023/04/20 02:52:59;;;;;;;;;7.75;7.50;;;;;13.47;39.49;101012.38;2102504;28;45905;-67
2023/04/20 02:54:00;;;;;;;;;6.75;6.75;;;;;13.48;39.43;101015.91;2100296;27;46719;-67
2023/04/20 02:55:00;;;;;;;;;7.00;6.50;;;;;13.47;39.23;101022.16;2104572;27;45911;-68
2023/04/20 02:56:00;;;;;;;;;5.25;5.00;;;;;13.46;39.13;101017.72;2106712;27;46624;-68
2023/04/20 02:57:02;;;;;;;;;9.00;8.00;;;;;13.44;39.50;101011.56;2103845;28;46576;-68
2023/04/20 02:58:02;;;;;;;;;5.00;5.00;;;;;13.43;39.52;101020.47;2099659;28;46760;-67
2023/04/20 02:59:03;;;;;;;;;9.00;7.75;;;;;13.43;39.36;101013.34;2102299;27;46280;-68
2023/04/20 03:00:04;;;;;;;;;7.00;7.00;;;;;13.42;39.32;101014.28;2092278;28;46094;-68
2023/04/20 03:01:04;;;;;;;;;6.80;6.00;;;;;13.41;39.20;101011.66;2095473;28;46332;-66
2023/04/20 03:02:04;;;;;;;;;7.00;7.00;;;;;13.40;39.48;101020.56;2102410;27;46007;-68
2023/04/20 03:03:05;;;;;;;;;6.67;5.00;;;;;13.39;39.14;101021.50;2098906;28;45928;-66
2023/04/20 03:04:05;;;;;;;;;6.67;6.67;;;;;13.36;39.34;101013.59;2104261;28;47047;-67
2023/04/20 03:05:06;;;;;;;;;7.75;5.50;;;;;13.37;39.25;101021.53;2103414;28;46186;-68
2023/04/20 03:06:06;;;;;;;;;8.67;7.33;;;;;13.36;39.47;101016.25;2099929;28;46286;-67
2023/04/20 03:07:08;;;;;;;;;9.67;7.67;;;;;13.35;39.39;101019.84;2099663;28;46125;-68
2023/04/20 03:08:08;;;;;;;;;5.00;5.00;;;;;13.34;39.46;101020.72;2097200;28;46554;-67
2023/04/20 03:09:08;;;;;;;;;9.50;7.50;;;;;13.34;39.61;101024.31;2102585;28;46136;-66
2023/04/20 03:10:10;;;;;;;;;9.00;9.00;;;;;13.33;39.51;101017.19;2099052;28;46163;-67
2023/04/20 03:11:10;;;;;;;;;6.25;5.25;;;;;13.34;39.56;101012.72;2095352;28;46365;-66
2023/04/20 03:12:10;;;;;;;;;8.00;8.00;;;;;13.33;39.48;101013.66;2092834;28;45675;-67
2023/04/20 03:13:10;;;;;;;;;7.25;7.25;;;;;13.31;39.51;101021.69;2098110;28;45713;-68
2023/04/20 03:14:11;;;;;;;;;7.25;7.00;;;;;13.31;39.36;101015.50;2100797;28;45000;-67
2023/04/20 03:15:11;;;;;;;;;9.50;7.00;;;;;13.29;39.53;101015.53;2100404;28;46492;-67
2023/04/20 03:16:11;;;;;;;;;7.00;7.00;;;;;13.28;39.66;101021.78;2096099;28;47797;-68
2023/04/20 03:17:12;;;;;;;;;7.00;6.50;;;;;13.26;39.53;101020.97;2095386;28;46840;-68
2023/04/20 03:18:12;;;;;;;;;9.25;8.25;;;;;13.25;39.45;101020.09;2102892;28;46192;-68
2023/04/20 03:19:12;;;;;;;;;8.00;6.25;;;;;13.25;39.73;101019.22;2103286;28;45429;-68
2023/04/20 03:20:13;;;;;;;;;9.25;8.25;;;;;13.24;39.62;101022.81;2100517;28;46510;-68
2023/04/20 03:21:14;;;;;;;;;7.25;6.50;;;;;13.24;39.57;101020.13;2100972;28;45327;-67
2023/04/20 03:22:14;;;;;;;;;8.00;7.75;;;;;13.22;39.50;101030.84;2090842;28;45549;-67
2023/04/20 03:23:14;;;;;;;;;6.00;6.00;;;;;13.21;39.47;101021.09;2092317;28;45465;-67
2023/04/20 03:24:18;;;;;;;;;7.50;7.50;;;;;13.21;39.35;101014.88;2103277;28;45347;-68
2023/04/20 03:25:18;;;;;;;;;6.40;6.40;;;;;13.19;39.36;101024.69;2091711;28;45210;-68
2023/04/20 03:26:19;;;;;;;;;7.25;7.25;;;;;13.17;39.55;101024.72;2094020;28;46150;-67
2023/04/20 03:27:19;;;;;;;;;5.00;5.00;;;;;13.16;39.69;101025.63;2100639;28;45956;-68
2023/04/20 03:28:20;;;;;;;;;6.25;6.25;;;;;13.15;39.64;101026.56;2104519;28;45549;-67
2023/04/20 03:29:20;;;;;;;;;7.75;7.25;;;;;13.15;39.71;101028.34;2104560;28;45892;-67
2023/04/20 03:30:20;;;;;;;;;7.00;7.00;;;;;13.14;39.81;101022.13;2099006;28;46589;-67
2023/04/20 03:31:21;;;;;;;;;7.00;7.00;;;;;13.14;39.70;101016.81;2098490;28;46012;-65
2023/04/20 03:32:21;;;;;;;;;7.75;7.75;;;;;13.15;39.88;101021.22;2099427;28;46829;-65
2023/04/20 03:33:22;;;;;;;;;9.25;6.75;;;;;13.15;39.52;101015.03;2102184;28;45863;-67
2023/04/20 03:34:22;;;;;;;;;6.00;6.00;;;;;13.14;39.76;101022.13;2099348;28;46066;-67
2023/04/20 03:35:22;;;;;;;;;5.00;5.00;;;;;13.13;39.59;101007.06;2102968;28;45510;-65
2023/04/20 03:36:23;;;;;;;;;7.25;6.75;;;;;13.12;39.69;101012.44;2104283;28;46224;-66
2023/04/20 03:37:23;;;;;;;;;5.75;4.50;;;;;13.11;39.58;101014.25;2104359;28;46573;-67
2023/04/20 03:38:24;;;;;;;;;6.25;6.25;;;;;13.11;39.60;101014.25;2104832;28;45582;-65
2023/04/20 03:39:24;;;;;;;;;6.50;6.50;;;;;13.11;39.73;101016.03;2101195;28;45616;-67
2023/04/20 03:40:24;;;;;;;;;4.75;4.75;;;;;13.11;39.72;101014.25;2098492;28;47146;-66
2023/04/20 03:41:25;;;;;;;;;6.25;6.25;;;;;13.10;39.62;101017.81;2103161;28;45276;-66
2023/04/20 03:42:25;;;;;;;;;6.25;4.75;;;;;13.10;39.73;101017.81;2099932;27;46066;-66
2023/04/20 03:43:25;;;;;;;;;6.25;6.25;;;;;13.09;39.55;101016.06;2086075;28;46617;-66
2023/04/20 03:44:26;;;;;;;;;7.00;6.00;;;;;13.08;39.68;101014.28;2088464;28;45838;-66
2023/04/20 03:45:26;;;;;;;;;7.00;7.00;;;;;13.10;39.83;101017.81;2102242;28;46214;-68
2023/04/20 03:46:27;;;;;;;;;6.67;6.33;;;;;13.10;39.86;101016.94;2097857;28;46368;-66
2023/04/20 03:47:27;;;;;;;;;8.00;6.00;;;;;13.11;39.52;101016.03;2100800;28;45471;-65
2023/04/20 03:48:27;;;;;;;;;8.67;5.00;;;;;13.11;39.61;101024.03;2104442;28;46686;-67
2023/04/20 03:49:28;;;;;;;;;6.67;5.00;;;;;13.12;39.70;101028.44;2102322;28;45016;-66
2023/04/20 03:50:29;;;;;;;;;7.00;7.00;;;;;13.11;39.52;101029.34;2103974;28;46192;-65
2023/04/20 03:51:30;;;;;;;;;6.25;6.25;;;;;13.09;39.67;101021.41;2102058;28;45635;-66
2023/04/20 03:52:30;;;;;;;;;5.67;5.00;;;;;13.08;39.57;101029.41;2103725;28;47022;-66
2023/04/20 03:53:30;;;;;;;;;7.33;7.00;;;;;13.07;39.59;101031.19;2104297;28;45061;-66
2023/04/20 03:54:31;;;;;;;;;8.75;7.75;;;;;13.04;39.24;101025.97;2097326;28;46343;-66
2023/04/20 03:55:31;;;;;;;;;8.00;7.00;;;;;13.02;39.15;101024.25;2103235;28;46653;-66
2023/04/20 03:56:31;;;;;;;;;6.00;6.00;;;;;12.98;39.53;101022.59;2096027;28;45661;-66
2023/04/20 03:57:32;;;;;;;;;8.33;7.67;;;;;12.97;39.57;101029.72;2092734;28;47015;-67
2023/04/20 03:58:32;;;;;;;;;6.00;6.00;;;;;12.97;39.55;101027.06;2100262;28;45247;-65
2023/04/20 03:59:33;;;;;;;;;6.33;6.33;;;;;12.94;39.47;101022.66;2094383;28;46278;-65
2023/04/20 04:00:33;;;;;;;;;4.25;4.25;;;;;12.91;39.59;101029.88;2095375;28;45811;-66
2023/04/20 04:01:36;;;;;;;;;8.00;7.00;;;;;12.91;39.55;101030.75;2099862;27;46377;-68
2023/04/20 04:02:36;;;;;;;;;5.00;5.00;;;;;12.90;39.44;101023.66;2098266;28;45482;-68
2023/04/20 04:03:37;;;;;;;;;6.00;6.00;;;;;12.88;39.58;101025.50;2105615;27;45759;-68
2023/04/20 04:04:37;;;;;;;;;7.25;7.25;;;;;12.88;39.85;101030.84;2096640;28;46710;-67
2023/04/20 04:05:39;;;;;;;;;11.25;8.00;;;;;12.89;39.62;101037.03;2102997;27;46901;-67
2023/04/20 04:06:40;;;;;;;;;6.00;6.00;;;;;12.88;39.69;101035.28;2098076;28;46634;-66
2023/04/20 04:07:40;;;;;;;;;7.00;7.00;;;;;12.88;39.48;101035.28;2103372;28;46819;-68
2023/04/20 04:08:40;;;;;;;;;7.25;6.25;;;;;12.86;39.70;101026.47;2103855;28;45672;-67
2023/04/20 04:09:41;;;;;;;;;7.75;7.75;;;;;12.86;39.66;101039.78;2103504;27;46843;-65
2023/04/20 04:10:41;;;;;;;;;7.00;7.00;;;;;12.87;39.54;101033.53;2095817;28;45725;-67
2023/04/20 04:11:41;;;;;;;;;8.00;6.50;;;;;12.87;39.64;101036.19;2076550;28;45133;-66
2023/04/20 04:12:42;;;;;;;;;7.00;7.00;;;;;12.87;39.55;101046.84;2088212;28;46086;-67
2023/04/20 04:13:42;;;;;;;;;6.00;5.75;;;;;12.86;39.77;101038.00;2093560;28;45745;-66
2023/04/20 04:14:42;;;;;;;;;6.50;6.50;;;;;12.87;39.60;101037.06;2096150;28;45996;-66
2023/04/20 04:15:43;;;;;;;;;6.50;6.50;;;;;12.87;39.62;101033.53;2099829;28;46036;-66
2023/04/20 04:16:43;;;;;;;;;6.00;6.00;;;;;12.88;39.76;101032.63;2105223;27;45079;-67
2023/04/20 04:17:44;;;;;;;;;9.50;9.00;;;;;12.88;39.45;101036.16;2099569;28;45791;-67
2023/04/20 04:18:45;;;;;;;;;5.80;5.80;;;;;12.89;39.56;101037.03;2099797;28;45949;-66
2023/04/20 04:19:45;;;;;;;;;10.00;8.40;;;;;12.89;39.41;101037.91;2101692;28;46211;-66
2023/04/20 04:20:46;;;;;;;;;8.25;7.25;;;;;12.88;39.42;101032.63;2096003;28;46381;-66
2023/04/20 04:21:46;;;;;;;;;8.75;7.00;;;;;12.87;39.52;101039.75;2093792;28;45749;-67
2023/04/20 04:22:46;;;;;;;;;5.25;5.25;;;;;12.88;39.51;101043.28;2098086;28;45699;-67
2023/04/20 04:23:48;;;;;;;;;9.00;7.75;;;;;12.87;39.65;101045.06;2090991;28;45675;-66
2023/04/20 04:24:48;;;;;;;;;6.00;6.00;;;;;12.86;39.55;101039.78;2091679;28;46030;-66
2023/04/20 04:25:48;;;;;;;;;7.00;7.00;;;;;12.86;39.46;101045.09;2090041;28;45845;-67
2023/04/20 04:26:49;;;;;;;;;7.00;7.00;;;;;12.86;39.49;101045.09;2092373;28;46634;-67
2023/04/20 04:27:50;;;;;;;;;7.00;7.00;;;;;12.86;39.25;101045.09;2102137;28;46127;-67
2023/04/20 04:28:50;;;;;;;;;6.60;6.60;;;;;12.85;39.29;101048.69;2102810;28;45678;-66
2023/04/20 04:29:50;;;;;;;;;8.00;6.75;;;;;12.84;39.46;101052.28;2101340;28;45040;-68
2023/04/20 04:30:51;;;;;;;;;9.00;8.67;;;;;12.81;39.44;101049.66;2099350;28;47193;-66
2023/04/20 04:31:52;;;;;;;;;8.00;8.00;;;;;12.80;39.20;101050.56;2092366;28;45799;-66
2023/04/20 04:32:52;;;;;;;;;8.60;8.60;;;;;12.80;39.44;101048.78;2089488;28;45763;-67
2023/04/20 04:33:53;;;;;;;;;6.00;6.00;;;;;12.78;39.44;101050.63;2102289;28;46126;-67
2023/04/20 04:34:54;;;;;;;;;8.33;7.00;;;;;12.77;39.52;101051.53;2100491;28;45606;-69
2023/04/20 04:35:54;;;;;;;;;8.50;6.50;;;;;12.77;39.19;101048.00;2102149;28;46509;-67
2023/04/20 04:36:55;;;;;;;;;8.25;8.25;;;;;12.76;39.46;101051.56;2101370;28;45492;-69
2023/04/20 04:37:56;;;;;;;;;6.33;6.00;;;;;12.74;39.33;101054.28;2104575;28;46436;-67
2023/04/20 04:38:56;;;;;;;;;9.50;7.00;;;;;12.75;39.43;101060.47;2103940;28;46714;-68